Time;durP1;ratioP1;P1;durP2;ratioP2;P2;SDS_P1;SDS_P2;PMS_P1;PMS_P2;Temp;Humidity;BMP_temperature;BMP_pressure;BME280_temperature;BME280_humidity;BME280_pressure;Samples;Min_cycle;Max_cycle;Signal;HPM_P1;HPM_P2
2022/09/06 00:00:06;;;;;;;;;;;19.90;99.00;;;;;;4976257;28;19947;-82
2022/09/06 00:02:32;;;;;;;;;;;19.80;99.30;;;;;;4994017;28;19925;-81
2022/09/06 00:04:58;;;;;;;;;;;19.80;99.40;;;;;;5011186;28;19925;-79
2022/09/06 00:07:24;;;;;;;;;;;19.70;99.60;;;;;;5010105;28;19975;-83
2022/09/06 00:09:50;;;;;;;;;;;19.70;99.50;;;;;;4978483;28;19999;-80
2022/09/06 00:12:16;;;;;;;;;;;19.70;99.90;;;;;;4993359;28;20016;-81
2022/09/06 00:14:41;;;;;;;;;;;19.60;99.90;;;;;;5010027;28;19971;-82
2022/09/06 00:17:07;;;;;;;;;;;19.60;99.90;;;;;;4993960;28;20249;-85
2022/09/06 00:19:33;;;;;;;;;;;19.60;99.90;;;;;;4991610;28;19940;-80
2022/09/06 00:21:58;;;;;;;;;;;19.50;99.90;;;;;;4978195;28;19925;-86
2022/09/06 00:24:24;;;;;;;;;;;19.50;99.90;;;;;;4994007;28;19925;-80
2022/09/06 00:26:50;;;;;;;;;;;19.50;99.90;;;;;;4988851;28;19929;-80
2022/09/06 00:29:16;;;;;;;;;;;19.50;99.90;;;;;;4992394;28;19929;-80
2022/09/06 00:31:41;;;;;;;;;;;19.50;99.90;;;;;;4971169;28;19948;-80
2022/09/06 00:34:07;;;;;;;;;;;19.40;99.90;;;;;;4974025;28;20344;-81
2022/09/06 00:36:33;;;;;;;;;;;19.40;99.90;;;;;;4994514;28;20004;-83
2022/09/06 00:38:59;;;;;;;;;;;19.40;99.90;;;;;;4977517;28;19933;-81
2022/09/06 00:41:25;;;;;;;;;;;19.30;99.90;;;;;;4998471;28;20372;-79
2022/09/06 00:43:51;;;;;;;;;;;19.30;99.90;;;;;;4986891;28;19933;-81
2022/09/06 00:46:18;;;;;;;;;;;19.20;99.90;;;;;;5013284;28;19994;-81
2022/09/06 00:48:45;;;;;;;;;;;19.20;99.90;;;;;;4994955;28;19925;-84
2022/09/06 00:51:12;;;;;;;;;;;19.20;99.90;;;;;;5009306;28;19970;-82
2022/09/06 00:53:38;;;;;;;;;;;19.20;99.90;;;;;;5009718;28;20075;-86
2022/09/06 00:56:03;;;;;;;;;;;19.20;99.90;;;;;;4998110;28;20292;-82
2022/09/06 00:58:29;;;;;;;;;;;19.10;99.90;;;;;;4986870;28;19975;-82
2022/09/06 01:00:55;;;;;;;;;;;19.10;99.90;;;;;;4971496;28;19925;-80
2022/09/06 01:03:23;;;;;;;;;;;19.10;99.90;;;;;;5007655;28;19925;-83
2022/09/06 01:05:52;;;;;;;;;;;19.00;99.90;;;;;;4993336;28;20124;-80
2022/09/06 01:08:29;;;;;;;;;;;19.00;99.90;;;;;;4993260;28;19931;-82
2022/09/06 01:10:55;;;;;;;;;;;19.00;99.90;;;;;;4987262;28;19952;-80
2022/09/06 01:13:33;;;;;;;;;;;19.00;99.90;;;;;;5007397;28;20322;-83
2022/09/06 01:16:10;;;;;;;;;;;19.00;99.90;;;;;;4991890;28;20439;-81
2022/09/06 01:18:42;;;;;;;;;;;19.00;99.90;;;;;;5008605;28;20384;-79
2022/09/06 01:21:23;;;;;;;;;;;18.90;99.90;;;;;;5000989;28;20088;-83
2022/09/06 01:24:08;;;;;;;;;;;18.90;99.90;;;;;;4986366;28;19925;-80
2022/09/06 01:26:52;;;;;;;;;;;18.90;99.90;;;;;;5007184;28;19925;-81
2022/09/06 01:29:21;;;;;;;;;;;18.80;99.90;;;;;;5009720;28;20269;-82
2022/09/06 01:31:51;;;;;;;;;;;18.80;99.90;;;;;;5005070;28;20449;-81
2022/09/06 01:34:52;;;;;;;;;;;18.80;99.90;;;;;;5008906;28;20450;-80
2022/09/06 01:37:19;;;;;;;;;;;18.70;99.90;;;;;;4926938;28;19985;-82
2022/09/06 01:39:44;;;;;;;;;;;18.70;99.90;;;;;;4980382;28;20288;-86
2022/09/06 01:42:12;;;;;;;;;;;18.70;99.90;;;;;;5006792;28;19936;-79
2022/09/06 01:44:42;;;;;;;;;;;18.70;99.90;;;;;;4986503;28;20393;-81
2022/09/06 01:47:34;;;;;;;;;;;18.70;99.90;;;;;;4984138;28;19952;-83
2022/09/06 01:50:09;;;;;;;;;;;18.60;99.90;;;;;;5001470;28;19939;-79
2022/09/06 01:52:42;;;;;;;;;;;18.60;99.90;;;;;;5006703;28;19925;-82
2022/09/06 01:55:09;;;;;;;;;;;18.60;99.90;;;;;;4989684;28;19980;-80
2022/09/06 01:57:35;;;;;;;;;;;18.60;99.90;;;;;;4992700;28;19925;-81
2022/09/06 02:00:02;;;;;;;;;;;18.60;99.90;;;;;;5005839;28;19936;-81
2022/09/06 02:02:38;;;;;;;;;;;18.60;99.90;;;;;;4992372;28;19925;-83
2022/09/06 02:08:25;;;;;;;;;;;18.50;99.90;;;;;;5014232;23;19936;-84
2022/09/06 02:10:56;;;;;;;;;;;18.50;99.90;;;;;;4969747;28;19925;-81
2022/09/06 02:13:24;;;;;;;;;;;18.50;99.90;;;;;;4973845;28;19925;-83
2022/09/06 02:15:55;;;;;;;;;;;18.50;99.90;;;;;;4991972;28;19933;-82
2022/09/06 02:18:25;;;;;;;;;;;18.40;99.90;;;;;;4976845;28;19928;-83
2022/09/06 02:20:56;;;;;;;;;;;18.40;99.90;;;;;;4996911;28;19976;-80
2022/09/06 02:23:23;;;;;;;;;;;18.40;99.90;;;;;;4974383;28;20015;-79
2022/09/06 02:25:52;;;;;;;;;;;18.40;99.90;;;;;;4987909;28;19925;-78
2022/09/06 02:28:19;;;;;;;;;;;18.30;99.90;;;;;;4989068;28;20381;-80
2022/09/06 02:30:48;;;;;;;;;;;18.30;99.90;;;;;;4989895;28;19932;-83
2022/09/06 02:33:25;;;;;;;;;;;18.30;99.90;;;;;;4984985;28;19929;-86
2022/09/06 02:35:52;;;;;;;;;;;18.30;99.90;;;;;;4990577;28;19930;-85
2022/09/06 02:38:20;;;;;;;;;;;18.30;99.90;;;;;;4974479;28;19972;-90
2022/09/06 02:40:47;;;;;;;;;;;18.30;99.90;;;;;;4987082;28;20568;-81
2022/09/06 02:43:13;;;;;;;;;;;18.30;99.90;;;;;;4956206;28;19929;-83
2022/09/06 02:45:39;;;;;;;;;;;18.30;99.90;;;;;;4988143;28;19972;-81
2022/09/06 02:48:04;;;;;;;;;;;18.20;99.90;;;;;;4974458;28;19969;-84
2022/09/06 02:50:31;;;;;;;;;;;18.20;99.90;;;;;;4973983;28;19932;-83
2022/09/06 02:53:04;;;;;;;;;;;18.20;99.90;;;;;;4976221;28;19929;-77
2022/09/06 02:55:30;;;;;;;;;;;18.20;99.90;;;;;;4988916;28;19936;-84
2022/09/06 02:57:57;;;;;;;;;;;18.20;99.90;;;;;;4988125;28;20315;-82
2022/09/06 03:00:23;;;;;;;;;;;18.10;99.90;;;;;;4972556;28;20012;-87
2022/09/06 03:02:49;;;;;;;;;;;18.10;99.90;;;;;;4975573;28;20008;-85
2022/09/06 03:05:14;;;;;;;;;;;18.10;99.90;;;;;;4968823;28;19932;-80
2022/09/06 03:07:50;;;;;;;;;;;18.10;99.90;;;;;;4953189;28;19926;-80
2022/09/06 03:10:41;;;;;;;;;;;18.10;99.90;;;;;;4981774;28;20024;-80
2022/09/06 03:13:08;;;;;;;;;;;18.10;99.90;;;;;;4971949;28;19921;-81
2022/09/06 03:19:01;;;;;;;;;;;18.10;99.90;;;;;;4986869;28;19922;-82
2022/09/06 03:21:27;;;;;;;;;;;18.00;99.90;;;;;;4967394;28;19978;-81
2022/09/06 03:23:53;;;;;;;;;;;18.00;99.90;;;;;;4970864;28;20060;-80
2022/09/06 03:26:19;;;;;;;;;;;18.00;99.90;;;;;;4956217;28;19925;-81
2022/09/06 03:28:45;;;;;;;;;;;18.00;99.90;;;;;;4948495;28;19932;-80
2022/09/06 03:31:11;;;;;;;;;;;18.00;99.90;;;;;;4965187;28;19921;-78
2022/09/06 03:33:36;;;;;;;;;;;18.00;99.90;;;;;;4965859;28;19926;-82
2022/09/06 03:36:03;;;;;;;;;;;17.90;99.90;;;;;;4982527;28;19972;-79
2022/09/06 03:38:29;;;;;;;;;;;17.90;99.90;;;;;;4981852;28;20011;-79
2022/09/06 03:40:55;;;;;;;;;;;17.90;99.90;;;;;;4968173;28;20012;-79
2022/09/06 03:43:21;;;;;;;;;;;17.90;99.90;;;;;;4970409;28;20425;-79
2022/09/06 03:45:48;;;;;;;;;;;17.90;99.90;;;;;;4970929;28;20017;-82
2022/09/06 03:48:14;;;;;;;;;;;17.90;99.90;;;;;;4971582;28;19977;-81
2022/09/06 03:50:53;;;;;;;;;;;17.90;99.90;;;;;;4986559;28;19933;-79
2022/09/06 03:53:19;;;;;;;;;;;17.90;99.90;;;;;;4959238;28;19948;-80
2022/09/06 03:55:45;;;;;;;;;;;17.80;99.90;;;;;;4972394;28;20011;-81
2022/09/06 03:58:11;;;;;;;;;;;17.90;99.90;;;;;;4966058;28;20412;-78
2022/09/06 04:00:37;;;;;;;;;;;17.90;99.90;;;;;;4992629;28;19925;-79
2022/09/06 04:03:03;;;;;;;;;;;17.80;99.90;;;;;;4955826;28;19936;-81
2022/09/06 04:05:29;;;;;;;;;;;17.80;99.90;;;;;;4974015;28;20292;-81
2022/09/06 04:07:54;;;;;;;;;;;17.80;99.90;;;;;;4959700;28;19977;-80
2022/09/06 04:10:22;;;;;;;;;;;17.80;99.90;;;;;;4980179;28;20322;-80
2022/09/06 04:12:51;;;;;;;;;;;17.80;99.90;;;;;;4967396;28;19928;-85
2022/09/06 04:15:26;;;;;;;;;;;17.70;99.90;;;;;;4992879;28;20004;-81
2022/09/06 04:17:57;;;;;;;;;;;17.70;99.90;;;;;;4983170;28;19929;-78
2022/09/06 04:20:42;;;;;;;;;;;17.70;99.90;;;;;;4962494;28;19930;-82
2022/09/06 04:26:30;;;;;;;;;;;17.70;99.90;;;;;;4997434;28;19983;-80
2022/09/06 04:28:55;;;;;;;;;;;17.70;99.90;;;;;;4978041;28;20313;-81
2022/09/06 04:31:21;;;;;;;;;;;17.70;99.90;;;;;;4967910;28;19929;-80
2022/09/06 04:33:47;;;;;;;;;;;17.70;99.90;;;;;;4991301;28;20045;-80
2022/09/06 04:36:39;;;;;;;;;;;17.70;99.90;;;;;;4980044;28;20017;-79
2022/09/06 04:39:23;;;;;;;;;;;17.70;99.90;;;;;;4983148;28;19921;-78
2022/09/06 04:41:56;;;;;;;;;;;17.70;99.90;;;;;;5008907;28;19926;-82
2022/09/06 04:44:22;;;;;;;;;;;17.70;99.90;;;;;;4970577;28;20422;-80
2022/09/06 04:46:48;;;;;;;;;;;17.60;99.90;;;;;;4972436;28;20420;-78
2022/09/06 04:49:14;;;;;;;;;;;17.60;99.90;;;;;;4968005;28;19999;-81
2022/09/06 04:51:40;;;;;;;;;;;17.60;99.90;;;;;;4982833;28;19925;-79
2022/09/06 04:54:05;;;;;;;;;;;17.60;99.90;;;;;;4959354;28;19984;-80
2022/09/06 04:56:31;;;;;;;;;;;17.60;99.90;;;;;;4978655;28;19922;-79
2022/09/06 04:58:57;;;;;;;;;;;17.60;99.90;;;;;;4992156;28;19925;-82
2022/09/06 05:01:25;;;;;;;;;;;17.60;99.90;;;;;;4959554;28;19941;-78
2022/09/06 05:03:50;;;;;;;;;;;17.60;99.90;;;;;;4980490;28;19925;-82
2022/09/06 05:06:21;;;;;;;;;;;17.60;99.90;;;;;;4955736;28;19929;-81
2022/09/06 05:08:47;;;;;;;;;;;17.60;99.90;;;;;;5001861;28;19933;-85
2022/09/06 05:11:13;;;;;;;;;;;17.60;99.90;;;;;;4993356;28;20291;-82
2022/09/06 05:13:42;;;;;;;;;;;17.70;99.90;;;;;;5012391;28;19929;-87
2022/09/06 05:16:09;;;;;;;;;;;17.70;99.90;;;;;;4996998;28;19979;-82
2022/09/06 05:18:35;;;;;;;;;;;17.70;99.90;;;;;;4999406;28;19933;-82
2022/09/06 05:21:00;;;;;;;;;;;17.70;99.90;;;;;;5006542;28;19929;-82
2022/09/06 05:23:27;;;;;;;;;;;17.70;99.90;;;;;;4992207;28;19941;-83
2022/09/06 05:25:53;;;;;;;;;;;17.70;99.90;;;;;;5006178;28;19929;-83
2022/09/06 05:28:19;;;;;;;;;;;17.70;99.90;;;;;;4991530;28;19933;-82
2022/09/06 05:30:45;;;;;;;;;;;17.70;99.90;;;;;;5004187;28;19925;-80
2022/09/06 05:33:13;;;;;;;;;;;17.70;99.90;;;;;;4992071;28;19982;-84
2022/09/06 05:35:57;;;;;;;;;;;17.70;99.90;;;;;;4993921;28;19921;-80
2022/09/06 05:38:25;;;;;;;;;;;17.70;99.90;;;;;;5023192;28;19921;-82
2022/09/06 05:41:10;;;;;;;;;;;17.60;99.90;;;;;;5014545;28;19921;-86
2022/09/06 05:43:59;;;;;;;;;;;17.60;99.90;;;;;;5007838;28;19925;-83
2022/09/06 05:46:28;;;;;;;;;;;17.60;99.90;;;;;;5018404;28;19921;-83
2022/09/06 05:48:56;;;;;;;;;;;17.60;99.90;;;;;;4996476;28;19933;-84
2022/09/06 05:51:25;;;;;;;;;;;17.70;99.90;;;;;;4996028;28;19921;-80
2022/09/06 05:53:51;;;;;;;;;;;17.70;99.90;;;;;;4993872;28;19932;-79
2022/09/06 05:56:17;;;;;;;;;;;17.70;99.90;;;;;;5011104;28;19928;-85
2022/09/06 05:58:44;;;;;;;;;;;17.80;99.90;;;;;;5000273;28;19933;-79
2022/09/06 06:01:17;;;;;;;;;;;17.80;99.90;;;;;;4992547;28;19925;-87
2022/09/06 06:04:03;;;;;;;;;;;17.80;99.90;;;;;;4992129;28;20589;-81
2022/09/06 06:06:31;;;;;;;;;;;17.80;99.90;;;;;;4992712;28;20438;-88
2022/09/06 06:08:57;;;;;;;;;;;17.80;99.90;;;;;;4998193;28;19932;-85
2022/09/06 06:11:24;;;;;;;;;;;17.90;99.90;;;;;;5004388;28;19929;-81
2022/09/06 06:13:51;;;;;;;;;;;17.90;99.90;;;;;;4985065;28;19925;-80
2022/09/06 06:16:18;;;;;;;;;;;17.90;99.90;;;;;;4973517;28;20029;-82
2022/09/06 06:18:44;;;;;;;;;;;17.90;99.90;;;;;;4989384;28;19929;-81
2022/09/06 06:21:11;;;;;;;;;;;17.90;99.90;;;;;;4992080;28;19952;-81
2022/09/06 06:23:37;;;;;;;;;;;18.00;99.90;;;;;;5009129;28;20380;-80
2022/09/06 06:26:04;;;;;;;;;;;18.00;99.90;;;;;;4992379;28;20525;-82
2022/09/06 06:28:30;;;;;;;;;;;18.00;99.90;;;;;;4991856;28;19944;-83
2022/09/06 06:30:56;;;;;;;;;;;18.00;99.90;;;;;;4992428;28;19929;-80
2022/09/06 06:33:22;;;;;;;;;;;18.00;99.90;;;;;;5001949;28;19925;-86
2022/09/06 06:35:57;;;;;;;;;;;18.10;99.90;;;;;;5010489;28;19936;-82
2022/09/06 06:38:23;;;;;;;;;;;18.10;99.90;;;;;;4990560;28;19929;-82
2022/09/06 06:40:49;;;;;;;;;;;18.10;99.90;;;;;;5011908;28;19935;-82
2022/09/06 06:43:15;;;;;;;;;;;18.20;99.90;;;;;;4992116;28;19929;-80
2022/09/06 06:45:41;;;;;;;;;;;18.20;99.90;;;;;;4988359;28;19925;-81
2022/09/06 06:48:06;;;;;;;;;;;18.20;99.90;;;;;;5005053;28;20012;-83
2022/09/06 06:50:32;;;;;;;;;;;18.20;99.90;;;;;;5009805;28;20007;-81
2022/09/06 06:52:59;;;;;;;;;;;18.20;99.90;;;;;;4986735;28;19932;-87
2022/09/06 06:55:25;;;;;;;;;;;18.20;99.90;;;;;;4968263;28;19926;-78
2022/09/06 06:57:51;;;;;;;;;;;18.20;99.90;;;;;;4989807;28;19936;-81
2022/09/06 07:00:17;;;;;;;;;;;18.20;99.90;;;;;;4993079;28;19929;-83
2022/09/06 07:02:43;;;;;;;;;;;18.20;99.90;;;;;;5000429;28;19964;-86
2022/09/06 07:05:09;;;;;;;;;;;18.20;99.90;;;;;;4989840;28;19931;-83
2022/09/06 07:07:35;;;;;;;;;;;18.20;99.90;;;;;;4998397;28;19948;-80
2022/09/06 07:10:01;;;;;;;;;;;18.20;99.90;;;;;;4993074;28;19979;-80
2022/09/06 07:12:26;;;;;;;;;;;18.20;99.90;;;;;;4991343;28;19936;-80
2022/09/06 07:14:52;;;;;;;;;;;18.20;99.90;;;;;;4989629;28;20242;-87
2022/09/06 07:17:18;;;;;;;;;;;18.20;99.90;;;;;;4977977;28;19940;-82
2022/09/06 07:19:44;;;;;;;;;;;18.30;99.90;;;;;;4987235;28;19932;-85
2022/09/06 07:22:11;;;;;;;;;;;18.30;99.90;;;;;;5003543;28;19925;-81
2022/09/06 07:24:40;;;;;;;;;;;18.30;99.90;;;;;;5001484;28;19931;-83
2022/09/06 07:27:05;;;;;;;;;;;18.40;99.90;;;;;;4990293;28;20011;-82
2022/09/06 07:29:31;;;;;;;;;;;18.40;99.90;;;;;;4988410;28;20385;-83
2022/09/06 07:31:58;;;;;;;;;;;18.40;99.90;;;;;;4993119;28;20012;-79
2022/09/06 07:34:26;;;;;;;;;;;18.50;99.90;;;;;;4994596;28;19933;-85
2022/09/06 07:36:53;;;;;;;;;;;18.50;99.90;;;;;;5018094;28;20016;-85
2022/09/06 07:39:19;;;;;;;;;;;18.60;99.90;;;;;;4996196;28;20617;-84
2022/09/06 07:49:13;;;;;;;;;;;18.70;99.90;;;;;;5008824;28;19916;-80
2022/09/06 07:52:04;;;;;;;;;;;19.00;99.90;;;;;;4995369;28;19929;-85
2022/09/06 07:54:30;;;;;;;;;;;19.10;99.90;;;;;;5020242;28;19933;-81
2022/09/06 07:56:56;;;;;;;;;;;19.70;99.90;;;;;;4995787;28;19925;-83
2022/09/06 07:59:22;;;;;;;;;;;20.80;99.90;;;;;;4974664;28;20020;-86
2022/09/06 08:01:48;;;;;;;;;;;21.60;99.90;;;;;;4985721;28;19940;-93
2022/09/06 08:04:14;;;;;;;;;;;21.60;99.90;;;;;;4994918;28;19932;-84
2022/09/06 08:06:45;;;;;;;;;;;21.30;99.90;;;;;;4994279;28;20284;-87
2022/09/06 08:09:11;;;;;;;;;;;21.30;99.90;;;;;;4993226;28;20544;-88
2022/09/06 08:11:37;;;;;;;;;;;21.70;99.90;;;;;;4979041;28;19925;-83
2022/09/06 08:14:04;;;;;;;;;;;22.10;99.90;;;;;;4996431;28;19936;-92
2022/09/06 08:16:31;;;;;;;;;;;23.00;99.90;;;;;;5008878;28;19925;-84
2022/09/06 08:18:58;;;;;;;;;;;23.70;99.90;;;;;;4977594;28;20016;-79
2022/09/06 08:21:25;;;;;;;;;;;24.40;99.90;;;;;;4994494;28;19929;-86
2022/09/06 08:23:58;;;;;;;;;;;24.70;99.90;;;;;;5001050;28;19978;-83
2022/09/06 08:26:26;;;;;;;;;;;25.10;99.90;;;;;;5009719;28;19925;-83
2022/09/06 08:32:25;;;;;;;;;;;25.80;99.90;;;;;;5025163;28;19929;-91
2022/09/06 08:34:51;;;;;;;;;;;26.30;99.90;;;;;;5014223;28;19951;-85
2022/09/06 08:37:18;;;;;;;;;;;26.40;99.90;;;;;;4996449;28;19932;-86
2022/09/06 08:39:44;;;;;;;;;;;26.50;99.90;;;;;;5011297;28;19929;-85
2022/09/06 08:42:10;;;;;;;;;;;26.40;99.90;;;;;;4993449;28;20277;-79
2022/09/06 08:44:41;;;;;;;;;;;26.20;99.90;;;;;;4986786;28;19977;-82
2022/09/06 08:47:11;;;;;;;;;;;25.80;99.90;;;;;;4993488;28;19930;-89
2022/09/06 08:49:58;;;;;;;;;;;25.50;99.90;;;;;;5014591;28;20028;-85
2022/09/06 08:52:46;;;;;;;;;;;25.10;99.90;;;;;;4991906;28;19925;-87
2022/09/06 08:55:25;;;;;;;;;;;24.80;99.90;;;;;;5012799;28;19939;-92
2022/09/06 08:58:00;;;;;;;;;;;24.70;99.90;;;;;;4988192;28;20367;-86
2022/09/06 09:00:26;;;;;;;;;;;24.50;99.90;;;;;;5013517;28;20276;-84
2022/09/06 09:03:10;;;;;;;;;;;24.40;99.90;;;;;;4994608;28;19926;-86
2022/09/06 09:05:37;;;;;;;;;;;24.50;99.90;;;;;;5007884;28;20623;-86
2022/09/06 09:08:22;;;;;;;;;;;24.50;99.90;;;;;;4990488;28;19929;-86
2022/09/06 09:10:56;;;;;;;;;;;24.50;99.90;;;;;;5006368;28;19979;-89
2022/09/06 09:13:31;;;;;;;;;;;24.60;99.90;;;;;;4999668;28;19925;-85
2022/09/06 09:15:57;;;;;;;;;;;24.70;99.90;;;;;;4995041;28;19925;-81
2022/09/06 09:18:30;;;;;;;;;;;24.70;99.90;;;;;;5012843;28;20299;-84
2022/09/06 09:20:57;;;;;;;;;;;24.70;99.90;;;;;;4997324;28;20395;-88
2022/09/06 09:23:44;;;;;;;;;;;25.00;99.90;;;;;;5013075;28;19996;-83
2022/09/06 09:26:30;;;;;;;;;;;25.00;99.90;;;;;;5000777;28;19940;-84
2022/09/06 09:29:24;;;;;;;;;;;25.10;99.90;;;;;;5015768;28;19925;-87
2022/09/06 09:32:16;;;;;;;;;;;25.20;99.90;;;;;;4994829;28;20272;-80
2022/09/06 09:34:42;;;;;;;;;;;25.30;99.90;;;;;;4995990;28;19987;-91
2022/09/06 09:37:12;;;;;;;;;;;25.10;99.90;;;;;;4984013;28;19976;-80
2022/09/06 09:39:38;;;;;;;;;;;25.10;99.90;;;;;;4994305;28;19964;-88
2022/09/06 09:42:06;;;;;;;;;;;25.20;99.90;;;;;;4980440;28;19925;-84
2022/09/06 09:44:32;;;;;;;;;;;25.30;99.90;;;;;;4992632;28;19957;-83
2022/09/06 09:47:08;;;;;;;;;;;25.30;99.90;;;;;;4996012;28;19952;-84
2022/09/06 09:49:35;;;;;;;;;;;25.30;99.90;;;;;;5012317;28;19929;-83
2022/09/06 09:52:06;;;;;;;;;;;25.30;99.90;;;;;;4987931;28;19987;-85
2022/09/06 09:54:55;;;;;;;;;;;25.40;99.40;;;;;;4988050;28;19964;-83
2022/09/06 10:00:39;;;;;;;;;;;25.50;99.30;;;;;;5011729;28;19951;-85
2022/09/06 10:03:16;;;;;;;;;;;25.40;99.10;;;;;;5010232;28;19925;-84
2022/09/06 10:09:33;;;;;;;;;;;25.10;99.50;;;;;;5019713;28;19932;-81
2022/09/06 10:12:00;;;;;;;;;;;25.10;99.90;;;;;;4972872;28;20261;-78
2022/09/06 10:14:32;;;;;;;;;;;25.10;99.40;;;;;;4990210;28;19978;-83
2022/09/06 10:16:58;;;;;;;;;;;25.10;99.00;;;;;;4988189;28;20388;-84
2022/09/06 10:19:41;;;;;;;;;;;25.10;98.90;;;;;;4991379;28;20048;-81
2022/09/06 10:22:27;;;;;;;;;;;25.00;98.50;;;;;;4990183;28;20016;-82
2022/09/06 10:25:11;;;;;;;;;;;24.90;98.90;;;;;;4993932;28;19929;-86
2022/09/06 10:27:42;;;;;;;;;;;25.00;98.60;;;;;;5014919;28;19987;-81
2022/09/06 10:30:08;;;;;;;;;;;25.10;98.90;;;;;;4989179;28;19929;-89
2022/09/06 10:32:53;;;;;;;;;;;25.30;98.60;;;;;;5007771;28;19925;-88
2022/09/06 10:35:23;;;;;;;;;;;25.40;98.70;;;;;;5008665;28;20024;-83
2022/09/06 10:38:14;;;;;;;;;;;25.50;97.40;;;;;;5014652;28;19987;-84
2022/09/06 10:41:00;;;;;;;;;;;25.50;98.00;;;;;;5009643;28;19975;-89
2022/09/06 10:46:39;;;;;;;;;;;25.60;97.10;;;;;;5010503;28;19925;-79
2022/09/06 10:49:09;;;;;;;;;;;25.70;97.30;;;;;;5012931;28;19931;-80
2022/09/06 10:51:53;;;;;;;;;;;25.80;97.10;;;;;;4998840;28;20012;-86
2022/09/06 10:54:21;;;;;;;;;;;25.70;96.80;;;;;;5028712;28;20004;-79
2022/09/06 10:57:02;;;;;;;;;;;25.40;96.40;;;;;;4979110;28;19940;-87
2022/09/06 10:59:54;;;;;;;;;;;25.50;97.00;;;;;;4993556;28;20266;-83
2022/09/06 11:02:26;;;;;;;;;;;25.60;97.00;;;;;;4988129;28;19932;-85
2022/09/06 11:04:57;;;;;;;;;;;25.60;96.30;;;;;;4995859;28;19968;-84
2022/09/06 11:07:33;;;;;;;;;;;25.80;96.30;;;;;;5009528;28;19937;-84
2022/09/06 11:10:05;;;;;;;;;;;25.80;96.20;;;;;;4993500;28;19926;-83
2022/09/06 11:12:37;;;;;;;;;;;25.90;96.30;;;;;;4994370;28;20889;-87
2022/09/06 11:15:04;;;;;;;;;;;26.10;95.60;;;;;;5010726;28;19979;-86
2022/09/06 11:17:33;;;;;;;;;;;26.20;95.40;;;;;;4998306;28;20389;-88
2022/09/06 11:23:36;;;;;;;;;;;26.30;94.80;;;;;;4992169;28;19926;-82
2022/09/06 11:26:22;;;;;;;;;;;26.40;95.20;;;;;;5009933;28;19926;-84
2022/09/06 11:28:52;;;;;;;;;;;26.60;95.10;;;;;;5010538;28;19941;-93
2022/09/06 11:31:24;;;;;;;;;;;26.80;94.80;;;;;;5004614;28;19926;-87
2022/09/06 11:34:00;;;;;;;;;;;26.90;94.90;;;;;;5001334;28;20546;-85
2022/09/06 11:36:26;;;;;;;;;;;26.80;93.90;;;;;;4994374;28;20404;-90
2022/09/06 11:38:54;;;;;;;;;;;26.80;93.80;;;;;;5007566;28;19931;-89
2022/09/06 11:41:20;;;;;;;;;;;26.90;93.50;;;;;;4995459;28;19926;-86
2022/09/06 11:44:21;;;;;;;;;;;27.00;93.30;;;;;;4992945;28;19926;-84
2022/09/06 11:46:47;;;;;;;;;;;27.00;92.80;;;;;;4989861;28;20288;-88
2022/09/06 11:49:32;;;;;;;;;;;26.90;92.70;;;;;;4994832;28;19936;-83
2022/09/06 11:51:59;;;;;;;;;;;27.00;92.90;;;;;;4995176;28;19941;-85
2022/09/06 11:54:34;;;;;;;;;;;27.00;93.30;;;;;;4991283;28;19977;-86
2022/09/06 11:57:12;;;;;;;;;;;27.10;92.80;;;;;;4985226;28;20029;-83
2022/09/06 11:59:38;;;;;;;;;;;26.90;92.20;;;;;;5008076;28;19926;-85
2022/09/06 12:02:05;;;;;;;;;;;26.90;92.80;;;;;;4992676;28;19933;-82
2022/09/06 12:04:50;;;;;;;;;;;27.00;93.00;;;;;;5009354;28;19932;-86
2022/09/06 12:07:15;;;;;;;;;;;27.10;92.40;;;;;;4993210;28;19933;-84
2022/09/06 12:09:42;;;;;;;;;;;27.20;92.20;;;;;;5001405;28;19926;-85
2022/09/06 12:12:09;;;;;;;;;;;27.20;92.20;;;;;;5009076;28;19933;-85
2022/09/06 12:14:39;;;;;;;;;;;27.10;91.70;;;;;;4993953;28;19936;-86
2022/09/06 12:17:06;;;;;;;;;;;27.10;91.70;;;;;;4990590;28;19987;-86
2022/09/06 12:19:48;;;;;;;;;;;27.00;91.60;;;;;;5006093;28;19936;-85
2022/09/06 12:22:29;;;;;;;;;;;26.90;91.20;;;;;;4992046;28;19929;-89
2022/09/06 12:24:58;;;;;;;;;;;26.80;91.70;;;;;;5003913;28;20645;-92
2022/09/06 12:27:25;;;;;;;;;;;26.70;91.30;;;;;;4999297;28;19929;-85
2022/09/06 12:30:00;;;;;;;;;;;26.60;91.60;;;;;;4995048;28;19925;-89
2022/09/06 12:32:32;;;;;;;;;;;26.60;91.50;;;;;;4987911;28;20025;-88
2022/09/06 12:34:59;;;;;;;;;;;26.60;91.80;;;;;;5005675;28;20020;-82
2022/09/06 12:37:32;;;;;;;;;;;26.70;91.70;;;;;;4992853;28;19928;-83
2022/09/06 12:39:58;;;;;;;;;;;26.70;91.70;;;;;;5002943;28;19949;-84
2022/09/06 12:42:25;;;;;;;;;;;26.70;91.50;;;;;;4988425;28;19933;-86
2022/09/06 12:44:53;;;;;;;;;;;26.70;91.50;;;;;;5009073;28;19929;-93
2022/09/06 12:47:24;;;;;;;;;;;26.70;91.20;;;;;;5009569;28;20355;-88
2022/09/06 12:50:06;;;;;;;;;;;26.60;90.90;;;;;;5012009;28;19964;-84
2022/09/06 12:52:32;;;;;;;;;;;26.60;91.60;;;;;;4992837;28;19972;-90
2022/09/06 12:54:58;;;;;;;;;;;26.60;91.30;;;;;;5019749;28;19925;-82
2022/09/06 12:57:25;;;;;;;;;;;26.60;91.40;;;;;;5009597;28;19980;-83
2022/09/06 12:59:52;;;;;;;;;;;26.60;91.30;;;;;;4999113;28;20526;-82
2022/09/06 13:02:39;;;;;;;;;;;26.50;91.30;;;;;;4990471;28;19957;-80
2022/09/06 13:05:07;;;;;;;;;;;26.50;91.30;;;;;;4983496;28;20411;-84
2022/09/06 13:07:35;;;;;;;;;;;26.50;91.20;;;;;;5005034;28;19951;-79
2022/09/06 13:10:02;;;;;;;;;;;26.50;91.50;;;;;;5005543;28;19955;-83
2022/09/06 13:12:33;;;;;;;;;;;26.40;91.10;;;;;;4992934;28;19990;-88
2022/09/06 13:15:03;;;;;;;;;;;26.50;91.50;;;;;;5006357;28;19964;-85
2022/09/06 13:17:29;;;;;;;;;;;26.50;91.40;;;;;;5002251;28;20003;-81
2022/09/06 13:19:56;;;;;;;;;;;26.60;91.40;;;;;;5011372;28;19925;-80
2022/09/06 13:22:43;;;;;;;;;;;26.60;91.70;;;;;;5010499;28;19932;-80
2022/09/06 13:25:13;;;;;;;;;;;26.70;91.60;;;;;;4997035;28;19929;-86
2022/09/06 13:27:44;;;;;;;;;;;26.70;91.00;;;;;;4985202;28;19936;-77
2022/09/06 13:30:29;;;;;;;;;;;26.80;91.40;;;;;;5005243;28;19971;-79
2022/09/06 13:32:55;;;;;;;;;;;26.80;91.20;;;;;;4988545;28;20385;-81
2022/09/06 13:35:22;;;;;;;;;;;26.80;90.90;;;;;;5011492;28;19952;-79
2022/09/06 13:37:49;;;;;;;;;;;26.80;90.70;;;;;;5001261;28;19925;-82
2022/09/06 13:40:37;;;;;;;;;;;26.80;90.80;;;;;;5004668;28;20094;-79
2022/09/06 13:43:07;;;;;;;;;;;26.80;90.80;;;;;;5001800;28;19940;-84
2022/09/06 13:45:43;;;;;;;;;;;26.80;90.50;;;;;;5008200;28;19980;-77
2022/09/06 13:48:09;;;;;;;;;;;26.80;90.20;;;;;;5012560;28;19976;-82
2022/09/06 13:50:35;;;;;;;;;;;26.90;90.80;;;;;;4983158;28;19968;-84
2022/09/06 13:53:02;;;;;;;;;;;27.00;90.30;;;;;;4993439;28;19943;-86
2022/09/06 13:55:29;;;;;;;;;;;27.00;90.40;;;;;;5002219;28;19925;-83
2022/09/06 13:57:55;;;;;;;;;;;27.00;89.40;;;;;;4982435;28;20624;-82
2022/09/06 14:00:21;;;;;;;;;;;27.00;90.10;;;;;;4990335;28;19977;-83
2022/09/06 14:02:48;;;;;;;;;;;27.00;90.30;;;;;;4986250;28;20020;-84
2022/09/06 14:05:15;;;;;;;;;;;27.00;90.10;;;;;;5015691;28;19936;-81
2022/09/06 14:07:42;;;;;;;;;;;27.00;89.30;;;;;;4977482;28;20503;-79
2022/09/06 14:10:10;;;;;;;;;;;26.90;88.90;;;;;;4970715;28;19937;-85
2022/09/06 14:12:36;;;;;;;;;;;26.90;88.80;;;;;;4970840;28;20020;-81
2022/09/06 14:15:02;;;;;;;;;;;26.90;89.30;;;;;;4978479;28;19934;-82
2022/09/06 14:17:28;;;;;;;;;;;26.90;89.60;;;;;;4959448;28;20532;-81
2022/09/06 14:19:55;;;;;;;;;;;26.90;89.40;;;;;;4992567;28;19969;-85
2022/09/06 14:22:21;;;;;;;;;;;26.90;88.60;;;;;;4968353;28;19941;-83
2022/09/06 14:24:50;;;;;;;;;;;26.90;89.10;;;;;;4966462;28;20016;-91
2022/09/06 14:27:17;;;;;;;;;;;26.90;89.00;;;;;;4992189;28;19929;-84
2022/09/06 14:29:49;;;;;;;;;;;27.00;89.40;;;;;;4979325;28;20586;-82
2022/09/06 14:32:14;;;;;;;;;;;27.10;88.70;;;;;;4957508;28;19929;-84
2022/09/06 14:34:40;;;;;;;;;;;27.00;88.30;;;;;;4981857;28;19940;-84
2022/09/06 14:37:06;;;;;;;;;;;27.00;87.20;;;;;;4975872;28;21029;-81
2022/09/06 14:39:32;;;;;;;;;;;27.00;88.30;;;;;;4985229;28;19968;-78
2022/09/06 14:41:58;;;;;;;;;;;27.00;87.70;;;;;;4968392;28;20331;-80
2022/09/06 14:44:24;;;;;;;;;;;26.90;87.40;;;;;;4979048;28;20293;-83
2022/09/06 14:46:52;;;;;;;;;;;26.90;88.00;;;;;;4956257;28;20028;-80
2022/09/06 14:49:19;;;;;;;;;;;26.80;87.70;;;;;;4961770;28;20466;-80
2022/09/06 14:51:45;;;;;;;;;;;26.70;87.20;;;;;;4972020;28;20295;-80
2022/09/06 14:54:11;;;;;;;;;;;26.70;88.10;;;;;;4971748;28;19933;-79
2022/09/06 14:56:39;;;;;;;;;;;26.70;87.90;;;;;;4973497;28;19925;-79
2022/09/06 14:59:05;;;;;;;;;;;26.70;87.70;;;;;;4987149;28;19933;-78
2022/09/06 15:01:32;;;;;;;;;;;26.70;88.00;;;;;;4987548;28;19933;-81
2022/09/06 15:03:59;;;;;;;;;;;26.70;88.30;;;;;;4999635;28;20494;-77
2022/09/06 15:06:25;;;;;;;;;;;26.70;88.10;;;;;;4987079;28;20355;-78